createdAt,value
2022-10-19T00:00:50.554Z,58.89
2022-10-19T00:03:20.698Z,59.58
2022-10-19T00:05:49.818Z,59.54
2022-10-19T00:08:16.415Z,60.52
2022-10-19T00:10:43.071Z,60.19
2022-10-19T00:13:09.820Z,60.45
2022-10-19T00:15:45.759Z,61.21
2022-10-19T00:18:12.557Z,60.35
2022-10-19T00:20:39.717Z,59.81
2022-10-19T00:23:06.462Z,59.41
2022-10-19T00:25:33.070Z,58.74
2022-10-19T00:28:00.518Z,60.09
2022-10-19T00:30:27.123Z,59.13
2022-10-19T00:32:53.753Z,60.01
2022-10-19T00:35:20.391Z,59.85
2022-10-19T00:37:47.009Z,60.64
2022-10-19T00:40:13.697Z,63.12
2022-10-19T00:42:40.335Z,63.31
2022-10-19T00:45:19.670Z,63.12
2022-10-19T00:47:47.184Z,62.85
2022-10-19T00:50:14.851Z,65.01
2022-10-19T00:52:41.832Z,65.16
2022-10-19T00:55:09.261Z,65.14
2022-10-19T00:57:36.060Z,65.78
2022-10-19T01:00:07.308Z,64.53
2022-10-19T01:02:34.465Z,65.20
2022-10-19T01:05:19.981Z,64.78
2022-10-19T01:07:46.624Z,64.03
2022-10-19T01:10:13.394Z,64.40
2022-10-19T01:12:40.003Z,64.49
2022-10-19T01:15:06.701Z,65.50
2022-10-19T01:17:39.337Z,66.32
2022-10-19T01:20:11.733Z,65.83
2022-10-19T01:22:50.615Z,65.36
2022-10-19T01:25:20.281Z,65.00
2022-10-19T01:28:05.414Z,67.21
2022-10-19T01:30:34.744Z,64.98
2022-10-19T01:33:06.856Z,66.86
2022-10-19T01:35:37.914Z,64.75
2022-10-19T01:38:14.558Z,63.97
2022-10-19T01:40:49.219Z,63.85
2022-10-19T01:43:18.881Z,63.77
2022-10-19T01:46:13.902Z,64.00
2022-10-19T01:48:42.822Z,64.05
2022-10-19T01:51:18.473Z,68.39
2022-10-19T01:53:47.757Z,68.76
2022-10-19T01:56:17.158Z,69.93
2022-10-19T01:58:45.213Z,68.47
2022-10-19T02:01:12.686Z,67.85
2022-10-19T02:03:40.391Z,69.07
2022-10-19T02:06:10.033Z,69.27
2022-10-19T02:08:56.949Z,72.64
2022-10-19T02:11:23.847Z,73.15
2022-10-19T02:13:54.805Z,74.83
2022-10-19T02:16:27.126Z,76.23
2022-10-19T02:18:55.299Z,76.72
2022-10-19T02:21:22.020Z,77.23
2022-10-19T02:23:50.585Z,79.87
2022-10-19T02:26:21.395Z,80.77
2022-10-19T02:28:48.661Z,81.55
2022-10-19T02:31:15.468Z,81.43
2022-10-19T02:33:42.520Z,81.00
2022-10-19T02:36:09.268Z,81.69
2022-10-19T02:38:36.051Z,81.37
2022-10-19T02:41:16.663Z,81.32
2022-10-19T02:43:45.715Z,80.99
2022-10-19T02:46:31.631Z,80.41
2022-10-19T02:48:59.358Z,81.30
2022-10-19T02:51:30.792Z,81.06
2022-10-19T02:53:59.019Z,80.12
2022-10-19T02:56:29.387Z,79.87
2022-10-19T02:58:56.644Z,80.57
2022-10-19T03:01:24.032Z,79.77
2022-10-19T03:03:51.608Z,82.03
2022-10-19T03:06:18.359Z,82.60
2022-10-19T03:08:46.370Z,81.80
2022-10-19T03:11:14.561Z,82.32
2022-10-19T03:13:41.781Z,83.40
2022-10-19T03:16:09.899Z,82.61
2022-10-19T03:18:36.524Z,81.37
2022-10-19T03:21:04.144Z,81.25
2022-10-19T03:23:30.775Z,81.47
2022-10-19T03:25:57.379Z,80.81
2022-10-19T03:28:23.995Z,81.62
2022-10-19T03:30:50.561Z,80.58
2022-10-19T03:33:17.229Z,80.95
2022-10-19T03:35:43.856Z,80.07
2022-10-19T03:38:10.456Z,78.31
2022-10-19T03:40:37.275Z,81.35
2022-10-19T03:43:04.133Z,82.02
2022-10-19T03:45:30.975Z,80.13
2022-10-19T03:47:57.821Z,79.21
2022-10-19T03:50:24.761Z,79.55
2022-10-19T03:52:53.681Z,79.89
2022-10-19T03:55:20.448Z,77.50
2022-10-19T03:57:47.210Z,77.81
2022-10-19T04:00:14.238Z,79.39
2022-10-19T04:02:41.698Z,77.24
2022-10-19T04:05:08.505Z,76.47
2022-10-19T04:07:35.367Z,74.98
2022-10-19T04:10:02.140Z,78.06
2022-10-19T04:12:28.723Z,78.83
2022-10-19T04:14:57.587Z,77.05
2022-10-19T04:17:24.753Z,76.51
2022-10-19T04:19:51.471Z,80.70
2022-10-19T04:22:18.085Z,77.47
2022-10-19T04:24:44.668Z,77.42
2022-10-19T04:27:11.311Z,76.59
2022-10-19T04:29:37.969Z,77.64
2022-10-19T04:32:04.598Z,76.03
2022-10-19T04:34:31.580Z,76.45
2022-10-19T04:36:59.702Z,76.03
2022-10-19T04:39:26.454Z,74.63
2022-10-19T04:41:53.131Z,74.39
2022-10-19T04:44:19.999Z,73.94
2022-10-19T04:46:46.764Z,73.67
2022-10-19T04:49:16.443Z,75.03
2022-10-19T04:51:46.066Z,75.17
2022-10-19T04:54:12.711Z,79.54
2022-10-19T04:56:39.736Z,77.55
2022-10-19T04:59:06.364Z,77.08
2022-10-19T05:01:33.041Z,79.04
2022-10-19T05:04:01.028Z,78.66
2022-10-19T05:06:28.114Z,76.36
2022-10-19T05:08:54.893Z,76.24
2022-10-19T05:11:21.585Z,74.72
2022-10-19T05:13:48.562Z,74.75
2022-10-19T05:16:16.830Z,73.47
2022-10-19T05:18:46.563Z,75.51
2022-10-19T05:21:13.863Z,74.93
2022-10-19T05:23:41.053Z,75.80
2022-10-19T05:26:10.551Z,72.71
2022-10-19T05:31:40.609Z,75.63
2022-10-19T05:34:19.190Z,74.69
2022-10-19T05:36:49.091Z,75.09
2022-10-19T05:39:17.143Z,78.50
2022-10-19T05:41:44.860Z,76.95
2022-10-19T05:44:18.283Z,75.07
2022-10-19T05:46:45.187Z,73.12
2022-10-19T05:49:39.566Z,71.75
2022-10-19T05:52:06.475Z,70.65
2022-10-19T05:54:33.412Z,67.71
2022-10-19T05:57:02.418Z,66.32
2022-10-19T05:59:36.157Z,63.46
2022-10-19T06:02:11.192Z,61.48
2022-10-19T06:04:47.229Z,60.38
2022-10-19T06:10:36.740Z,60.32
2022-10-19T06:13:03.860Z,59.53
2022-10-19T06:15:40.256Z,61.95
2022-10-19T06:18:17.979Z,61.19
2022-10-19T06:20:44.947Z,58.75
2022-10-19T06:23:13.605Z,59.76
2022-10-19T06:26:05.856Z,58.38
2022-10-19T06:28:42.589Z,58.94
2022-10-19T06:31:25.423Z,56.51
2022-10-19T06:33:56.017Z,57.42
2022-10-19T06:36:41.575Z,56.90
2022-10-19T06:39:26.064Z,58.87
2022-10-19T06:42:01.967Z,56.03
2022-10-19T06:44:31.748Z,54.67
2022-10-19T06:47:01.317Z,54.63
2022-10-19T06:49:48.083Z,53.27
2022-10-19T06:52:39.687Z,57.10
2022-10-19T06:55:08.741Z,57.88
2022-10-19T06:57:57.900Z,57.57
2022-10-19T07:03:25.666Z,54.60
2022-10-19T07:08:53.438Z,54.83
2022-10-19T07:11:48.182Z,54.75
2022-10-19T07:17:52.679Z,53.67
2022-10-19T07:20:25.586Z,54.92
2022-10-19T07:22:52.527Z,56.02
2022-10-19T07:25:19.329Z,54.71
2022-10-19T07:27:52.088Z,56.34
2022-10-19T07:30:21.288Z,54.35
2022-10-19T07:32:48.117Z,57.76
2022-10-19T07:35:15.587Z,58.65
2022-10-19T07:37:43.787Z,59.31
2022-10-19T07:40:17.125Z,59.31
2022-10-19T07:42:46.357Z,60.52
2022-10-19T07:45:17.400Z,59.27
2022-10-19T07:50:53.040Z,59.16
2022-10-19T07:59:40.044Z,58.19
2022-10-19T08:02:14.305Z,56.78
2022-10-19T08:05:11.587Z,56.84
2022-10-19T08:07:39.103Z,56.58
2022-10-19T08:10:28.714Z,55.61
2022-10-19T08:12:57.673Z,56.66
2022-10-19T08:15:28.762Z,55.89
2022-10-19T08:18:29.204Z,56.49
2022-10-19T08:21:22.289Z,56.14
2022-10-19T08:23:50.696Z,55.29
2022-10-19T08:29:05.643Z,54.11
2022-10-19T08:31:40.903Z,52.79
2022-10-19T08:34:10.448Z,51.99
2022-10-19T08:36:37.478Z,51.74
2022-10-19T08:39:06.883Z,51.31
2022-10-19T08:41:51.978Z,50.04
2022-10-19T08:44:35.914Z,48.15
2022-10-19T08:47:12.524Z,48.78
2022-10-19T08:49:40.581Z,52.24
2022-10-19T08:52:16.532Z,51.48
2022-10-19T08:54:56.130Z,51.04
2022-10-19T08:57:38.400Z,51.64
2022-10-19T09:00:11.601Z,51.53
2022-10-19T09:02:41.472Z,50.34
2022-10-19T09:05:14.281Z,51.51
2022-10-19T09:07:46.085Z,49.15
2022-10-19T09:10:19.368Z,50.83
2022-10-19T09:12:55.132Z,51.45
2022-10-19T09:15:46.142Z,50.78
2022-10-19T09:18:35.179Z,49.79
2022-10-19T09:21:08.936Z,49.67
2022-10-19T09:23:41.513Z,50.64
2022-10-19T09:26:14.175Z,49.84
2022-10-19T09:28:59.855Z,47.85
2022-10-19T09:31:38.276Z,46.78
2022-10-19T09:34:28.040Z,47.22
2022-10-19T09:36:59.329Z,48.05
2022-10-19T09:39:29.795Z,48.50
2022-10-19T09:41:58.015Z,47.10
2022-10-19T09:44:25.708Z,46.48
2022-10-19T09:46:52.788Z,46.02
2022-10-19T09:49:38.051Z,44.94
2022-10-19T09:52:06.425Z,44.24
2022-10-19T09:54:40.399Z,45.78
2022-10-19T09:57:21.650Z,46.95
2022-10-19T09:59:51.509Z,46.00
2022-10-19T10:02:19.806Z,45.86
2022-10-19T10:04:57.178Z,45.54
2022-10-19T10:07:27.001Z,46.49
2022-10-19T10:09:53.801Z,45.17
2022-10-19T10:12:22.963Z,43.48
2022-10-19T10:14:50.152Z,44.59
2022-10-19T10:17:28.451Z,44.15
2022-10-19T10:19:58.289Z,42.82
2022-10-19T10:22:39.378Z,40.63
2022-10-19T10:25:16.533Z,39.42
2022-10-19T10:27:53.659Z,40.29
2022-10-19T10:30:20.776Z,40.06
2022-10-19T10:32:49.661Z,40.47
2022-10-19T10:35:34.605Z,38.22
2022-10-19T10:38:08.576Z,38.20
2022-10-19T10:40:35.345Z,38.45
2022-10-19T10:43:06.259Z,37.17
2022-10-19T10:45:35.861Z,37.42
2022-10-19T10:48:25.794Z,38.37
2022-10-19T10:50:55.392Z,39.49
2022-10-19T10:53:32.547Z,39.08
2022-10-19T10:55:59.485Z,37.18
2022-10-19T10:58:37.911Z,39.44
2022-10-19T11:01:08.094Z,39.47
2022-10-19T11:03:49.394Z,41.18
2022-10-19T11:09:08.376Z,42.01
2022-10-19T11:11:42.525Z,42.02
2022-10-19T11:14:30.633Z,41.23
2022-10-19T11:16:59.872Z,39.32
2022-10-19T11:19:27.712Z,38.44
2022-10-19T11:22:13.267Z,38.56
2022-10-19T11:24:46.367Z,38.05
2022-10-19T11:27:34.496Z,39.15
2022-10-19T11:30:09.977Z,39.47
2022-10-19T11:32:52.140Z,40.53
2022-10-19T11:35:45.830Z,40.26
2022-10-19T11:38:31.587Z,43.18
2022-10-19T11:41:22.591Z,40.71
2022-10-19T11:43:57.221Z,39.76
2022-10-19T11:46:29.229Z,39.42
2022-10-19T11:49:03.782Z,39.76
2022-10-19T11:51:35.519Z,39.89
2022-10-19T11:54:02.439Z,41.89
2022-10-19T11:57:08.299Z,42.09
2022-10-19T12:00:00.231Z,41.91
2022-10-19T12:02:38.386Z,41.19
2022-10-19T12:05:10.715Z,41.17
2022-10-19T12:07:46.439Z,40.01
2022-10-19T12:10:21.176Z,40.10
2022-10-19T12:12:59.590Z,40.34
2022-10-19T12:15:49.747Z,38.87
2022-10-19T12:18:21.319Z,39.60
2022-10-19T12:20:50.335Z,38.73
2022-10-19T12:23:23.691Z,39.23
2022-10-19T12:25:51.571Z,38.43
2022-10-19T12:28:22.040Z,38.18
2022-10-19T12:30:49.167Z,39.00
2022-10-19T12:33:20.923Z,38.89
2022-10-19T12:36:01.645Z,39.40
2022-10-19T12:38:34.991Z,37.97
2022-10-19T12:41:14.630Z,39.39
2022-10-19T12:43:45.222Z,40.15
2022-10-19T12:46:19.754Z,41.56
2022-10-19T12:48:46.661Z,41.58
2022-10-19T12:51:15.630Z,41.94
2022-10-19T12:53:44.590Z,42.46
2022-10-19T12:56:15.384Z,42.74
2022-10-19T12:58:48.144Z,42.43
2022-10-19T13:01:31.385Z,42.64
2022-10-19T13:04:16.110Z,43.68
2022-10-19T13:07:05.516Z,42.79
2022-10-19T13:09:37.214Z,42.60
2022-10-19T13:12:20.006Z,42.22
2022-10-19T13:14:50.948Z,41.90
2022-10-19T13:17:52.282Z,42.48
2022-10-19T13:20:20.586Z,43.25
2022-10-19T13:23:22.347Z,42.25
2022-10-19T13:26:09.184Z,41.89
2022-10-19T13:28:40.249Z,42.01
2022-10-19T13:31:25.607Z,42.37
2022-10-19T13:33:55.068Z,41.36
2022-10-19T13:36:25.891Z,41.25
2022-10-19T13:38:59.214Z,40.50
2022-10-19T13:41:27.639Z,43.18
2022-10-19T13:44:19.601Z,43.18
2022-10-19T13:46:51.663Z,43.74
2022-10-19T13:49:33.969Z,44.70
2022-10-19T13:52:13.372Z,44.07
2022-10-19T13:54:47.499Z,44.75
2022-10-19T13:57:34.445Z,44.16
2022-10-19T14:00:09.968Z,44.30
2022-10-19T14:03:01.951Z,44.67
2022-10-19T14:05:29.630Z,43.21
2022-10-19T14:08:15.851Z,43.99
2022-10-19T14:11:00.210Z,42.86
2022-10-19T14:13:28.474Z,43.13
2022-10-19T14:15:56.949Z,42.39
2022-10-19T14:18:25.246Z,41.11
2022-10-19T14:21:06.591Z,40.98
2022-10-19T14:23:34.607Z,41.58
2022-10-19T14:26:15.779Z,42.38
2022-10-19T14:28:43.301Z,43.58
2022-10-19T14:31:11.411Z,44.62
2022-10-19T14:33:39.793Z,45.04
2022-10-19T14:36:08.077Z,45.49
2022-10-19T14:38:37.519Z,45.58
2022-10-19T14:41:05.657Z,45.98
2022-10-19T14:43:33.434Z,45.65
2022-10-19T14:46:12.511Z,44.72
2022-10-19T14:48:45.703Z,43.64
2022-10-19T14:51:21.661Z,44.11
2022-10-19T14:53:48.372Z,44.87
2022-10-19T14:56:30.087Z,43.74
2022-10-19T14:58:59.543Z,43.66
2022-10-19T15:01:26.891Z,42.62
2022-10-19T15:03:53.914Z,42.11
2022-10-19T15:06:28.742Z,42.64
2022-10-19T15:09:01.921Z,42.92
2022-10-19T15:11:28.714Z,43.49
2022-10-19T15:14:15.089Z,42.92
2022-10-19T15:16:54.135Z,42.57
2022-10-19T15:19:29.265Z,42.88
2022-10-19T15:22:14.450Z,42.85
2022-10-19T15:24:55.320Z,42.70
2022-10-19T15:27:28.685Z,42.20
2022-10-19T15:29:56.930Z,42.67
2022-10-19T15:32:25.443Z,43.07
2022-10-19T15:34:52.818Z,43.24
2022-10-19T15:37:21.737Z,44.58
2022-10-19T15:39:48.991Z,43.81
2022-10-19T15:42:35.662Z,44.52
2022-10-19T15:45:03.019Z,45.71
2022-10-19T15:47:30.512Z,47.54
2022-10-19T15:50:01.463Z,46.28
2022-10-19T15:52:29.600Z,45.26
2022-10-19T15:54:57.457Z,45.51
2022-10-19T15:57:31.875Z,44.85
2022-10-19T16:00:00.697Z,44.77
2022-10-19T16:02:27.478Z,45.23
2022-10-19T16:04:54.584Z,45.68
2022-10-19T16:07:41.533Z,45.27
2022-10-19T16:10:09.505Z,45.68
2022-10-19T16:12:36.173Z,46.01
2022-10-19T16:15:02.854Z,45.91
2022-10-19T16:17:29.534Z,46.05
2022-10-19T16:19:56.138Z,45.43
2022-10-19T16:22:22.816Z,46.10
2022-10-19T16:24:49.499Z,46.50
2022-10-19T16:27:16.568Z,46.99
2022-10-19T16:29:44.603Z,47.24
2022-10-19T16:32:11.630Z,46.89
2022-10-19T16:34:38.756Z,47.13
2022-10-19T16:37:07.093Z,46.96
2022-10-19T16:39:34.262Z,47.20
2022-10-19T16:42:01.787Z,47.47
2022-10-19T16:44:28.746Z,47.52
2022-10-19T16:46:58.671Z,48.02
2022-10-19T16:49:25.835Z,47.98
2022-10-19T16:51:56.273Z,47.81
2022-10-19T16:54:29.844Z,48.05
2022-10-19T16:56:56.971Z,48.31
2022-10-19T16:59:25.009Z,48.61
2022-10-19T17:01:51.865Z,48.74
2022-10-19T17:04:18.626Z,49.47
2022-10-19T17:06:45.548Z,49.27
2022-10-19T17:11:59.209Z,49.11
2022-10-19T17:14:25.998Z,49.23
2022-10-19T17:16:52.818Z,49.47
2022-10-19T17:19:19.697Z,49.77
2022-10-19T17:21:49.528Z,49.17
2022-10-19T17:24:22.028Z,49.11
2022-10-19T17:26:50.517Z,49.21
2022-10-19T17:29:18.363Z,50.65
2022-10-19T17:31:45.172Z,52.31
2022-10-19T17:34:12.235Z,51.83
2022-10-19T17:39:15.641Z,51.93
2022-10-19T17:41:42.664Z,53.15
2022-10-19T17:44:09.412Z,52.29
2022-10-19T17:46:36.441Z,51.52
2022-10-19T17:49:03.595Z,52.48
2022-10-19T17:51:31.470Z,54.03
2022-10-19T17:53:59.969Z,53.73
2022-10-19T17:56:27.026Z,53.72
2022-10-19T17:58:54.048Z,54.98
2022-10-19T18:01:23.044Z,54.73
2022-10-19T18:03:50.571Z,54.65
2022-10-19T18:06:18.666Z,53.49
2022-10-19T18:08:47.125Z,53.61
2022-10-19T18:11:18.547Z,54.10
2022-10-19T18:13:45.428Z,55.04
2022-10-19T18:16:13.716Z,55.86
2022-10-19T18:18:41.803Z,55.53
2022-10-19T18:21:12.485Z,54.41
2022-10-19T18:23:39.725Z,53.87
2022-10-19T18:26:08.106Z,54.46
2022-10-19T18:28:36.411Z,54.87
2022-10-19T18:31:11.168Z,54.61
2022-10-19T18:33:38.434Z,53.83
2022-10-19T18:36:08.207Z,53.00
2022-10-19T18:38:34.950Z,53.15
2022-10-19T18:41:06.360Z,52.85
2022-10-19T18:43:33.209Z,53.00
2022-10-19T18:46:00.547Z,53.89
2022-10-19T18:48:28.368Z,52.27
2022-10-19T18:50:55.326Z,51.62
2022-10-19T18:53:22.383Z,52.34
2022-10-19T18:55:59.203Z,52.60
2022-10-19T18:58:26.411Z,51.70
2022-10-19T19:01:13.430Z,52.04
2022-10-19T19:03:41.845Z,51.78
2022-10-19T19:06:10.725Z,53.67
2022-10-19T19:08:37.621Z,52.88
2022-10-19T19:11:15.464Z,52.69
2022-10-19T19:13:42.744Z,53.19
2022-10-19T19:16:09.879Z,52.88
2022-10-19T19:18:36.773Z,52.28
2022-10-19T19:21:04.618Z,52.72
2022-10-19T19:23:31.812Z,51.47
2022-10-19T19:25:58.778Z,50.90
2022-10-19T19:28:25.556Z,51.49
2022-10-19T19:30:52.285Z,50.07
2022-10-19T19:33:19.144Z,48.53
2022-10-19T19:35:46.552Z,49.86
2022-10-19T19:38:14.017Z,49.61
2022-10-19T19:40:45.178Z,49.50
2022-10-19T19:43:13.025Z,50.15
2022-10-19T19:45:40.254Z,50.36
2022-10-19T19:48:07.660Z,50.19
2022-10-19T19:50:34.950Z,48.72
2022-10-19T19:53:02.365Z,48.25
2022-10-19T19:55:29.128Z,48.00
2022-10-19T19:57:55.862Z,48.00
2022-10-19T20:00:23.113Z,48.27
2022-10-19T20:02:53.466Z,48.52
2022-10-19T20:05:20.325Z,48.13
2022-10-19T20:07:47.150Z,49.38
2022-10-19T20:10:16.826Z,49.04
2022-10-19T20:12:43.813Z,49.21
2022-10-19T20:15:11.152Z,50.00
2022-10-19T20:17:38.369Z,48.90
2022-10-19T20:20:05.497Z,48.45
2022-10-19T20:22:32.196Z,49.48
2022-10-19T20:24:58.772Z,48.06
2022-10-19T20:27:26.149Z,47.76
2022-10-19T20:29:58.732Z,47.65
2022-10-19T20:32:26.058Z,47.79
2022-10-19T20:34:53.120Z,48.50
2022-10-19T20:37:20.122Z,47.77
2022-10-19T20:39:46.986Z,47.48
2022-10-19T20:42:14.272Z,46.93
2022-10-19T20:44:41.128Z,47.77
2022-10-19T20:47:07.798Z,47.43
2022-10-19T20:49:34.657Z,48.60
2022-10-19T20:52:01.272Z,47.47
2022-10-19T20:54:28.014Z,48.06
2022-10-19T20:56:54.704Z,48.52
2022-10-19T20:59:22.255Z,47.85
2022-10-19T21:01:50.102Z,47.86
2022-10-19T21:04:16.804Z,47.51
2022-10-19T21:06:44.865Z,47.26
2022-10-19T21:09:12.523Z,50.33
2022-10-19T21:11:40.393Z,51.19
2022-10-19T21:14:08.748Z,49.40
2022-10-19T21:16:35.564Z,50.57
2022-10-19T21:19:03.899Z,49.44
2022-10-19T21:21:32.126Z,50.23
2022-10-19T21:24:08.905Z,50.78
2022-10-19T21:26:36.169Z,50.50
2022-10-19T21:29:03.396Z,51.91
2022-10-19T21:31:30.817Z,51.03
2022-10-19T21:33:57.792Z,50.53
2022-10-19T21:36:27.738Z,49.62
2022-10-19T21:38:54.350Z,49.97
2022-10-19T21:41:25.343Z,49.64
2022-10-19T21:43:53.192Z,49.82
2022-10-19T21:46:20.417Z,49.80
2022-10-19T21:48:47.412Z,49.68
2022-10-19T21:51:17.053Z,51.26
2022-10-19T21:53:43.976Z,50.84
2022-10-19T21:56:10.602Z,52.56
2022-10-19T21:58:37.232Z,51.85
2022-10-19T22:01:07.558Z,51.32
2022-10-19T22:03:34.667Z,51.55
2022-10-19T22:06:01.400Z,51.15
2022-10-19T22:08:28.302Z,51.13
2022-10-19T22:10:54.969Z,50.65
2022-10-19T22:13:21.577Z,50.59
2022-10-19T22:15:55.661Z,50.34
2022-10-19T22:30:41.498Z,50.95
2022-10-19T22:33:11.879Z,50.48
2022-10-19T22:35:38.840Z,50.77
2022-10-19T22:38:07.098Z,51.20
2022-10-19T22:40:36.574Z,51.46
2022-10-19T22:43:06.724Z,50.37
2022-10-19T22:45:36.213Z,50.05
2022-10-19T22:48:05.442Z,49.68
2022-10-19T22:50:37.992Z,50.40
2022-10-19T22:53:12.172Z,52.50
2022-10-19T22:55:49.942Z,52.66
2022-10-19T22:58:25.006Z,56.81
2022-10-19T23:01:07.677Z,56.83
2022-10-19T23:03:34.429Z,57.41
2022-10-19T23:06:01.047Z,56.52
2022-10-19T23:08:28.190Z,56.44
2022-10-19T23:10:54.847Z,55.68
2022-10-19T23:13:21.756Z,55.71
2022-10-19T23:15:48.426Z,56.83
2022-10-19T23:18:15.145Z,56.26
2022-10-19T23:20:41.766Z,55.49
2022-10-19T23:23:09.108Z,60.23
2022-10-19T23:25:36.966Z,62.44
2022-10-19T23:28:25.800Z,58.09
2022-10-19T23:30:52.605Z,56.85
2022-10-19T23:33:19.248Z,55.68
2022-10-19T23:35:46.086Z,54.23
2022-10-19T23:38:12.708Z,53.73
2022-10-19T23:40:39.439Z,55.05
2022-10-19T23:43:06.446Z,54.59
2022-10-19T23:45:33.071Z,56.07
2022-10-19T23:47:59.676Z,56.65
2022-10-19T23:50:26.342Z,58.38
2022-10-19T23:52:52.945Z,58.59
2022-10-19T23:55:19.570Z,57.37
2022-10-19T23:57:46.216Z,57.43
